Time;durP1;ratioP1;P1;durP2;ratioP2;P2;SDS_P1;SDS_P2;PMS_P1;PMS_P2;Temp;Humidity;BMP_temperature;BMP_pressure;BME280_temperature;BME280_humidity;BME280_pressure;Samples;Min_cycle;Max_cycle;Signal;HPM_P1;HPM_P2
2023/06/26 00:00:47;;;;;;;7.80;3.65;;;;;;;-146.27;46.17;79089.09;5048500;28;20044;-68
2023/06/26 00:03:14;;;;;;;8.90;3.88;;;;;;;-146.27;47.65;79189.44;5047674;28;20387;-68
2023/06/26 00:05:41;;;;;;;6.40;4.25;;;;;;;-146.27;49.03;79255.69;5030526;28;20033;-69
2023/06/26 00:08:07;;;;;;;6.25;4.00;;;;;;;-146.27;50.45;79333.97;5045120;28;20025;-68
2023/06/26 00:10:32;;;;;;;9.48;4.90;;;;;;;-146.27;51.42;79422.28;5047616;28;20029;-69
2023/06/26 00:12:57;;;;;;;19.13;6.07;;;;;;;-146.27;53.46;79514.63;5047400;28;20087;-68
2023/06/26 00:15:24;;;;;;;10.20;5.72;;;;;;;-146.27;53.67;79460.44;5043357;28;20048;-68
2023/06/26 00:17:50;;;;;;;11.35;5.20;;;;;;;-146.27;56.40;79657.16;5049798;28;20021;-68
2023/06/26 00:20:18;;;;;;;10.15;4.43;;;;;;;-146.27;56.82;79667.19;5044945;28;20053;-71
2023/06/26 00:22:45;;;;;;;8.35;4.35;;;;;;;-146.27;57.52;79729.44;5039277;28;20476;-70
2023/06/26 00:25:10;;;;;;;11.85;5.30;;;;;;;-146.27;58.47;79805.72;5045063;28;20029;-70
2023/06/26 00:27:35;;;;;;;12.10;4.75;;;;;;;-146.27;58.88;79821.78;5023809;28;20077;-70
2023/06/26 00:30:01;;;;;;;11.82;4.80;;;;;;;-146.27;58.96;79821.78;5040092;28;20025;-68
2023/06/26 00:32:26;;;;;;;9.20;4.57;;;;;;;-146.27;59.42;79869.94;5042860;28;20029;-70
2023/06/26 00:34:53;;;;;;;13.60;4.43;;;;;;;-146.27;58.82;79936.19;5044825;28;20036;-69
2023/06/26 00:37:18;;;;;;;8.18;4.57;;;;;;;-146.27;58.80;79950.25;5038765;28;20029;-70
2023/06/26 00:39:43;;;;;;;12.00;4.90;;;;;;;-146.27;59.08;80020.53;5034502;28;20469;-70
2023/06/26 00:42:09;;;;;;;9.90;4.25;;;;;;;-146.27;58.56;79974.34;5041360;28;20395;-69
2023/06/26 00:44:34;;;;;;;9.50;4.45;;;;;;;-146.27;58.96;80030.56;5025666;28;20112;-69
2023/06/26 00:46:59;;;;;;;8.85;4.78;;;;;;;-146.27;58.87;80006.47;5044745;28;20464;-69
2023/06/26 00:49:26;;;;;;;8.00;3.50;;;;;;;-146.27;59.63;79982.38;5036048;28;20116;-69
2023/06/26 00:51:52;;;;;;;13.93;4.15;;;;;;;-146.27;59.63;79954.28;5036986;28;20064;-70
2023/06/26 00:54:20;;;;;;;11.85;4.13;;;;;;;-146.27;60.67;80002.44;5040588;28;20127;-69
2023/06/26 00:56:47;;;;;;;14.95;4.28;;;;;;;-146.27;60.25;79954.28;5037540;28;20017;-68
2023/06/26 00:59:13;;;;;;;11.52;4.15;;;;;;;-146.27;60.21;79994.41;5044563;28;20051;-71
2023/06/26 01:01:38;;;;;;;8.27;3.85;;;;;;;-146.27;61.22;80082.75;5046146;28;20489;-69
2023/06/26 01:04:05;;;;;;;12.15;3.50;;;;;;;-146.27;61.65;80102.84;5044015;28;20025;-68
2023/06/26 01:06:35;;;;;;;8.48;3.85;;;;;;;-146.27;61.92;80102.84;5044068;28;20111;-68
2023/06/26 01:09:01;;;;;;;8.50;3.30;;;;;;;-146.27;62.56;80147.00;5048950;28;20033;-68
2023/06/26 01:11:26;;;;;;;10.18;3.75;;;;;;;-146.27;62.76;80130.94;5048700;28;20441;-69
2023/06/26 01:13:53;;;;;;;18.90;4.13;;;;;;;-146.27;63.07;80098.81;5043312;28;20033;-68
2023/06/26 01:16:20;;;;;;;11.15;3.75;;;;;;;-146.27;63.86;80217.28;5046056;28;20509;-69
2023/06/26 01:18:48;;;;;;;8.02;3.53;;;;;;;-146.27;64.82;80267.47;5046581;28;20087;-68
2023/06/26 01:21:14;;;;;;;9.77;3.58;;;;;;;-146.27;65.09;80241.38;5047501;28;20047;-69
2023/06/26 01:24:04;;;;;;;7.97;3.42;;;;;;;-146.27;65.46;80295.56;5044028;28;20040;-68
2023/06/26 01:26:35;;;;;;;9.52;3.10;;;;;;;-146.27;65.76;80279.50;5052734;28;20023;-69
2023/06/26 01:29:02;;;;;;;7.72;3.28;;;;;;;-146.27;65.86;80259.44;5044457;28;20029;-68
2023/06/26 01:31:30;;;;;;;9.85;3.60;;;;;;;-146.27;66.07;80367.84;5039846;28;20025;-69
2023/06/26 01:33:57;;;;;;;9.63;3.80;;;;;;;-146.27;65.91;80293.56;5044598;28;20464;-69
2023/06/26 01:36:23;;;;;;;10.20;3.75;;;;;;;-146.27;66.68;80327.69;5048029;28;20070;-68
2023/06/26 01:38:48;;;;;;;10.80;4.13;;;;;;;-146.27;67.24;80420.06;5042142;28;20037;-68
2023/06/26 01:41:13;;;;;;;9.65;3.70;;;;;;;-146.27;67.31;80381.91;5043149;28;20198;-69
2023/06/26 01:44:03;;;;;;;10.32;3.47;;;;;;;-146.27;66.77;80343.75;5045480;28;20029;-68
2023/06/26 01:46:34;;;;;;;11.05;3.88;;;;;;;-146.27;66.66;80311.63;5040721;28;20457;-68
2023/06/26 01:49:34;;;;;;;13.43;3.95;;;;;;;-146.27;67.15;80363.84;5040546;28;20033;-68
2023/06/26 01:52:14;;;;;;;16.20;3.83;;;;;;;-146.27;66.97;80363.84;5023832;28;20107;-69
2023/06/26 01:54:52;;;;;;;10.18;3.92;;;;;;;-146.27;67.66;80446.16;5047189;28;20113;-70
2023/06/26 01:57:19;;;;;;;10.07;3.65;;;;;;;-146.27;68.20;80484.31;5031805;28;20056;-69
2023/06/26 01:59:47;;;;;;;10.57;4.00;;;;;;;-146.27;68.59;80502.38;5045150;28;20403;-69
2023/06/26 02:02:12;;;;;;;11.55;4.00;;;;;;;-146.27;69.21;80536.50;5024448;28;20473;-68
2023/06/26 02:04:38;;;;;;;16.23;4.05;;;;;;;-146.27;69.85;80544.53;5028194;28;20123;-69
2023/06/26 02:07:03;;;;;;;11.30;4.97;;;;;;;-146.27;70.20;80610.81;5043824;28;20025;-70
2023/06/26 02:09:29;;;;;;;10.43;3.63;;;;;;;-146.27;70.45;80608.78;5043852;28;20032;-70
2023/06/26 02:11:54;;;;;;;11.65;4.22;;;;;;;-146.27;70.23;80604.78;5042863;28;20029;-70
2023/06/26 02:14:20;;;;;;;15.98;4.55;;;;;;;-146.27;70.75;80646.94;5048575;28;20611;-68
2023/06/26 02:16:45;;;;;;;17.75;4.03;;;;;;;-146.27;71.55;80665.03;5028393;28;20112;-69
2023/06/26 02:19:10;;;;;;;13.55;4.10;;;;;;;-146.27;72.61;80721.25;5039111;28;20224;-70
2023/06/26 02:21:36;;;;;;;14.05;3.88;;;;;;;-146.27;72.47;80701.16;5039675;28;20523;-69
2023/06/26 02:24:01;;;;;;;19.15;5.40;;;;;;;-146.27;72.32;80699.16;5046533;28;20029;-69
2023/06/26 02:26:27;;;;;;;10.48;4.28;;;;;;;-146.27;72.13;80681.09;5053097;28;20029;-70
2023/06/26 02:28:53;;;;;;;16.23;5.15;;;;;;;-146.27;72.20;80677.06;5044758;28;20431;-69
2023/06/26 02:31:18;;;;;;;14.40;5.00;;;;;;;-146.27;73.15;80767.44;5043114;28;20351;-68
2023/06/26 02:33:45;;;;;;;15.73;4.40;;;;;;;-146.27;73.15;80795.53;5042561;28;20029;-69
2023/06/26 02:36:10;;;;;;;20.08;4.20;;;;;;;-146.27;72.77;80829.69;5048738;28;20017;-69
2023/06/26 02:38:36;;;;;;;16.20;4.60;;;;;;;-146.27;72.07;80765.41;5044409;28;20025;-70
2023/06/26 02:41:01;;;;;;;19.92;4.07;;;;;;;-146.27;71.93;80773.44;5042985;28;20039;-70
2023/06/26 02:43:27;;;;;;;14.93;4.95;;;;;;;-146.27;71.64;80775.47;5047803;28;20032;-69
2023/06/26 02:45:52;;;;;;;12.48;4.32;;;;;;;-146.27;72.10;80799.56;5048597;28;20102;-69
2023/06/26 02:48:17;;;;;;;15.38;3.83;;;;;;;-146.27;71.94;80809.59;5048513;28;20115;-69
2023/06/26 02:50:45;;;;;;;18.27;4.90;;;;;;;-146.27;72.02;80773.44;5044940;28;20031;-69
2023/06/26 02:53:12;;;;;;;14.38;4.88;;;;;;;-146.27;73.11;80895.94;5044496;28;20412;-69
2023/06/26 02:55:37;;;;;;;17.40;3.88;;;;;;;-146.27;72.85;80843.72;5044401;28;20021;-70
2023/06/26 02:58:02;;;;;;;17.58;4.50;;;;;;;-146.27;72.83;80845.75;5041490;28;20051;-69
2023/06/26 03:00:29;;;;;;;15.30;4.47;;;;;;;-146.27;72.92;80891.94;5043973;28;20025;-69
2023/06/26 03:02:55;;;;;;;16.55;4.60;;;;;;;-146.27;73.01;80805.56;5041130;28;20032;-69
2023/06/26 03:05:21;;;;;;;15.43;4.88;;;;;;;-146.27;73.07;80881.88;5043051;28;20031;-69
2023/06/26 03:07:46;;;;;;;19.05;5.22;;;;;;;-146.27;72.75;80801.56;5042711;28;20025;-69
2023/06/26 03:10:12;;;;;;;19.45;4.60;;;;;;;-146.27;72.97;80867.81;5039612;28;20025;-69
2023/06/26 03:12:37;;;;;;;13.57;4.85;;;;;;;-146.27;73.52;80893.94;5042279;28;20500;-70
2023/06/26 03:15:03;;;;;;;15.50;4.35;;;;;;;-146.27;73.66;80928.06;5043135;28;20605;-69
2023/06/26 03:17:28;;;;;;;16.05;4.13;;;;;;;-146.27;74.02;80942.13;5044702;28;20031;-68
2023/06/26 03:19:53;;;;;;;22.90;5.18;;;;;;;-146.27;74.73;81020.44;5051177;28;20021;-69
2023/06/26 03:22:19;;;;;;;10.70;4.00;;;;;;;-146.27;74.58;80990.31;5027780;28;20461;-70
2023/06/26 03:24:45;;;;;;;10.38;4.95;;;;;;;-146.27;74.68;81022.44;5042134;28;20159;-69
2023/06/26 03:27:11;;;;;;;17.30;5.35;;;;;;;-146.27;74.63;80986.31;5043108;28;20056;-70
2023/06/26 03:29:37;;;;;;;13.02;4.07;;;;;;;-146.27;74.47;80956.19;5049378;28;20033;-69
2023/06/26 03:32:02;;;;;;;12.45;4.93;;;;;;;-146.27;74.45;81002.38;5042944;28;20028;-70
2023/06/26 03:34:28;;;;;;;14.38;4.10;;;;;;;-146.27;74.74;80982.28;5042296;28;20032;-71
2023/06/26 03:36:53;;;;;;;22.52;4.80;;;;;;;-146.27;74.92;80986.31;5041861;28;20021;-69
2023/06/26 03:39:18;;;;;;;15.23;4.55;;;;;;;-146.27;74.71;81014.41;5042992;28;20170;-70
2023/06/26 03:41:44;;;;;;;13.63;5.13;;;;;;;-146.27;74.65;81032.50;5047373;28;20025;-70
2023/06/26 03:44:09;;;;;;;20.73;4.00;;;;;;;-146.27;74.67;80946.13;5043295;28;20024;-70
2023/06/26 03:46:34;;;;;;;20.88;4.70;;;;;;;-146.27;74.75;80984.28;5042993;28;20433;-69
2023/06/26 03:49:00;;;;;;;13.30;5.25;;;;;;;-146.27;75.24;80980.28;5047387;28;20032;-69
2023/06/26 03:51:25;;;;;;;20.10;4.88;;;;;;;-146.27;74.90;80996.34;5027485;28;20114;-69
2023/06/26 03:53:50;;;;;;;16.40;4.18;;;;;;;-146.27;74.60;80960.19;5043456;28;20047;-70
2023/06/26 03:56:16;;;;;;;12.35;4.63;;;;;;;-146.27;74.84;81006.38;5047736;28;20028;-69
2023/06/26 03:58:41;;;;;;;12.65;4.00;;;;;;;-146.27;74.83;81014.41;5048785;28;20544;-70
2023/06/26 04:01:07;;;;;;;19.13;4.40;;;;;;;-146.27;74.92;81020.44;5032836;28;20020;-70
2023/06/26 04:03:33;;;;;;;9.75;4.25;;;;;;;-146.27;74.74;81042.53;5046932;28;20033;-70
2023/06/26 04:05:59;;;;;;;15.85;4.80;;;;;;;-146.27;75.19;81052.56;5042297;28;21257;-69
2023/06/26 04:08:26;;;;;;;13.35;4.07;;;;;;;-146.27;75.04;81038.50;5024042;28;20035;-70
2023/06/26 04:10:52;;;;;;;12.93;3.95;;;;;;;-146.27;75.19;81090.72;5042523;28;20039;-70
2023/06/26 04:13:17;;;;;;;15.07;5.53;;;;;;;-146.27;75.44;81072.66;5042993;28;20415;-70
2023/06/26 04:15:43;;;;;;;16.60;3.88;;;;;;;-146.27;75.62;81074.66;5041125;28;20025;-70
2023/06/26 04:18:08;;;;;;;11.55;3.92;;;;;;;-146.27;75.63;81066.63;5044435;28;20111;-70
2023/06/26 04:20:39;;;;;;;10.15;3.45;;;;;;;-146.27;74.90;81078.69;5045421;28;20032;-70
2023/06/26 04:23:04;;;;;;;8.15;3.40;;;;;;;-146.27;74.52;81056.59;5039592;28;20009;-70
2023/06/26 04:25:30;;;;;;;10.18;3.90;;;;;;;-146.27;74.36;81076.66;5043466;28;20035;-70
2023/06/26 04:27:55;;;;;;;13.27;4.00;;;;;;;-146.27;73.97;81050.56;5041717;28;20535;-70
2023/06/26 04:30:20;;;;;;;12.70;3.33;;;;;;;-146.27;73.97;81080.69;5042076;28;20119;-69
2023/06/26 04:32:46;;;;;;;6.05;3.00;;;;;;;-146.27;73.22;81086.72;5042376;28;20033;-70
2023/06/26 04:35:11;;;;;;;8.90;2.95;;;;;;;-146.27;73.64;81062.59;5045394;28;20503;-70
2023/06/26 04:37:39;;;;;;;6.68;2.53;;;;;;;-146.27;73.13;81122.84;5043494;28;20031;-69
2023/06/26 04:40:05;;;;;;;11.15;2.83;;;;;;;-146.27;73.51;81086.72;5046754;28;20039;-70
2023/06/26 04:42:31;;;;;;;8.05;3.13;;;;;;;-146.27;73.16;81108.81;5045146;28;20025;-71
2023/06/26 04:44:56;;;;;;;6.15;2.78;;;;;;;-146.27;73.39;81110.81;5042208;28;20020;-70
2023/06/26 04:47:21;;;;;;;19.35;3.00;;;;;;;-146.27;73.70;81155.00;5041394;28;20033;-69
2023/06/26 04:49:47;;;;;;;8.00;2.53;;;;;;;-146.27;73.89;81126.88;5043458;28;20064;-69
2023/06/26 04:52:16;;;;;;;6.75;3.08;;;;;;;-146.27;74.01;81179.09;5039133;28;20465;-70
2023/06/26 04:54:41;;;;;;;6.50;2.38;;;;;;;-146.27;74.17;81187.13;5044462;28;20411;-72
2023/06/26 04:57:08;;;;;;;12.73;3.45;;;;;;;-146.27;75.39;81203.19;5050864;28;20036;-69
2023/06/26 04:59:34;;;;;;;8.75;3.28;;;;;;;-146.27;75.19;81181.09;5045498;28;20516;-70
2023/06/26 05:01:59;;;;;;;10.32;2.97;;;;;;;-146.27;75.87;81150.97;5041945;28;20071;-69
2023/06/26 05:04:24;;;;;;;5.65;2.70;;;;;;;-146.27;76.92;81175.06;5046665;28;20060;-70
2023/06/26 05:06:50;;;;;;;9.82;3.22;;;;;;;-146.27;76.97;81179.09;5048908;28;20033;-70
2023/06/26 05:09:15;;;;;;;8.45;3.72;;;;;;;-146.27;76.88;81229.28;5048804;28;20107;-71
2023/06/26 05:11:40;;;;;;;5.38;2.70;;;;;;;-146.27;77.86;81215.22;5023974;28;20040;-70
2023/06/26 05:14:09;;;;;;;8.70;3.25;;;;;;;-146.27;77.81;81255.41;5047678;28;20025;-69
2023/06/26 05:16:35;;;;;;;6.65;2.97;;;;;;;-146.27;77.20;81199.16;5053728;28;20107;-70
2023/06/26 05:19:00;;;;;;;5.63;2.65;;;;;;;-146.27;77.20;81195.16;5048784;28;20112;-70
2023/06/26 05:21:26;;;;;;;6.10;2.90;;;;;;;-146.27;77.22;81183.09;5047921;28;20257;-70
2023/06/26 05:23:55;;;;;;;11.25;2.92;;;;;;;-146.27;77.94;81227.28;5045801;28;20103;-69
2023/06/26 05:26:21;;;;;;;10.70;3.00;;;;;;;-146.27;78.19;81237.31;5043284;28;20036;-71
2023/06/26 05:28:48;;;;;;;6.10;2.72;;;;;;;-146.27;77.89;81136.91;5047410;28;20048;-71
2023/06/26 05:31:15;;;;;;;7.93;2.70;;;;;;;-146.27;77.37;81195.16;5048135;28;20064;-69
2023/06/26 05:33:43;;;;;;;6.20;2.80;;;;;;;-146.27;77.53;81219.25;5047720;28;20037;-70
2023/06/26 05:36:09;;;;;;;8.02;2.40;;;;;;;-146.27;76.41;81205.19;5044939;28;20097;-70
2023/06/26 05:38:35;;;;;;;7.60;2.60;;;;;;;-146.27;76.15;81197.16;5038368;28;20029;-70
2023/06/26 05:41:00;;;;;;;6.50;2.50;;;;;;;-146.27;74.89;81165.03;5042736;28;20048;-69
2023/06/26 05:43:26;;;;;;;5.03;2.42;;;;;;;-146.27;73.37;81181.09;5048555;28;20029;-69
2023/06/26 05:45:51;;;;;;;6.60;2.22;;;;;;;-146.27;72.24;81219.25;5044627;28;20067;-70
2023/06/26 05:48:17;;;;;;;7.20;2.10;;;;;;;-146.27;71.25;81223.25;5049321;28;20025;-70
2023/06/26 05:50:43;;;;;;;4.22;1.63;;;;;;;-146.27;71.69;81285.53;5048450;28;20040;-70
2023/06/26 05:53:09;;;;;;;3.42;1.98;;;;;;;-146.27;71.42;81283.50;5043185;28;20026;-70
2023/06/26 05:55:35;;;;;;;10.30;2.03;;;;;;;-146.27;71.67;81329.72;5049591;28;20473;-73
2023/06/26 05:58:02;;;;;;;8.32;1.70;;;;;;;-146.27;71.40;81289.53;5050474;28;20488;-70
2023/06/26 06:00:28;;;;;;;3.65;1.50;;;;;;;-146.27;71.20;81311.63;5051213;28;20032;-71
2023/06/26 06:02:54;;;;;;;8.57;1.63;;;;;;;-146.27;70.94;81277.50;5049935;28;20024;-69
2023/06/26 06:05:21;;;;;;;11.02;1.63;;;;;;;-146.27;70.23;81319.66;5038829;28;20025;-70
2023/06/26 06:07:47;;;;;;;6.82;1.50;;;;;;;-146.27;70.01;81351.78;5053070;28;20029;-70
2023/06/26 06:10:12;;;;;;;10.30;1.45;;;;;;;-146.27;70.15;81309.63;5040199;28;20036;-72
2023/06/26 06:12:38;;;;;;;4.00;1.48;;;;;;;-146.27;69.49;81279.50;5044943;28;20025;-69
2023/06/26 06:15:05;;;;;;;9.43;2.05;;;;;;;-146.27;69.46;81233.31;5048953;28;20033;-70
2023/06/26 06:17:30;;;;;;;4.97;1.02;;;;;;;-146.27;69.10;81227.28;5045096;28;20095;-69
2023/06/26 06:19:56;;;;;;;8.10;1.63;;;;;;;-146.27;68.58;81263.44;5035110;28;20041;-70
2023/06/26 06:22:21;;;;;;;6.85;1.30;;;;;;;-146.27;68.25;81263.44;5051563;28;20027;-70
2023/06/26 06:24:48;;;;;;;6.53;1.40;;;;;;;-146.27;68.30;81309.63;5050894;28;20063;-69
2023/06/26 06:27:14;;;;;;;6.13;1.27;;;;;;;-146.27;68.07;81343.75;5044516;28;20036;-69
2023/06/26 06:29:40;;;;;;;3.75;1.15;;;;;;;-146.27;68.47;81391.97;5043520;28;20037;-70
2023/06/26 06:32:06;;;;;;;8.15;1.85;;;;;;;-146.27;68.36;81397.97;5050528;28;20388;-69
2023/06/26 06:34:31;;;;;;;6.00;1.55;;;;;;;-146.27;68.91;81432.13;5041010;28;20373;-71
2023/06/26 06:36:56;;;;;;;9.20;1.73;;;;;;;-146.27;68.86;81412.03;5033326;28;20045;-69
2023/06/26 06:39:22;;;;;;;6.25;1.67;;;;;;;-146.27;68.63;81335.72;5044044;28;20025;-70
2023/06/26 06:41:47;;;;;;;9.05;1.77;;;;;;;-146.27;68.01;81395.97;5047888;28;20059;-69
2023/06/26 06:44:13;;;;;;;8.10;1.58;;;;;;;-146.27;68.16;81311.63;5052125;28;20025;-69
2023/06/26 06:46:38;;;;;;;18.13;1.65;;;;;;;-146.27;67.95;81277.50;5047483;28;20031;-70
2023/06/26 06:49:04;;;;;;;6.85;1.33;;;;;;;-146.27;67.31;81227.28;5051584;28;20024;-70
2023/06/26 06:51:29;;;;;;;8.07;1.10;;;;;;;-146.27;67.20;81257.41;5049535;28;20035;-72
2023/06/26 06:53:54;;;;;;;6.78;1.40;;;;;;;-146.27;67.76;81291.53;5047565;28;20448;-70
2023/06/26 06:56:20;;;;;;;9.27;1.90;;;;;;;-146.27;67.52;81299.59;5051012;28;20032;-69
2023/06/26 06:58:46;;;;;;;9.90;1.85;;;;;;;-146.27;68.00;81359.81;5052570;28;20412;-70
2023/06/26 07:01:14;;;;;;;6.10;1.45;;;;;;;-146.27;68.13;81351.78;5050808;28;20039;-69
2023/06/26 07:03:40;;;;;;;9.63;1.48;;;;;;;-146.27;67.55;81291.53;5048864;28;20110;-69
2023/06/26 07:06:06;;;;;;;8.88;1.35;;;;;;;-146.27;67.50;81291.53;5050965;28;20481;-70
2023/06/26 07:08:31;;;;;;;3.53;1.52;;;;;;;-146.27;67.75;81299.59;5032946;28;20056;-71
2023/06/26 07:10:57;;;;;;;6.50;1.10;;;;;;;-146.27;67.31;81283.50;5051286;28;20020;-69
2023/06/26 07:13:23;;;;;;;4.90;1.40;;;;;;;-146.27;67.78;81337.75;5050797;28;20037;-70
2023/06/26 07:15:48;;;;;;;6.25;1.38;;;;;;;-146.27;68.26;81321.66;5050756;28;20103;-70
2023/06/26 07:18:14;;;;;;;5.88;1.58;;;;;;;-146.27;68.45;81287.53;5048018;28;21199;-69
2023/06/26 07:20:43;;;;;;;6.15;1.30;;;;;;;-146.27;68.44;81277.50;5051042;28;20051;-70
2023/06/26 07:23:08;;;;;;;5.43;1.50;;;;;;;-146.27;68.15;81329.72;5042797;28;20144;-69
2023/06/26 07:25:34;;;;;;;6.47;1.60;;;;;;;-146.27;67.88;81371.88;5050084;28;20154;-69
2023/06/26 07:27:59;;;;;;;11.38;1.60;;;;;;;-146.27;68.22;81375.91;5050046;28;20025;-70
2023/06/26 07:30:25;;;;;;;8.93;1.63;;;;;;;-146.27;67.59;81331.72;5050049;28;20141;-69
2023/06/26 07:32:50;;;;;;;14.00;1.60;;;;;;;-146.27;67.54;81416.06;5051328;28;20028;-69
2023/06/26 07:35:16;;;;;;;9.00;1.55;;;;;;;-146.27;67.73;81359.81;5050562;28;20502;-71
2023/06/26 07:37:42;;;;;;;7.38;1.67;;;;;;;-146.27;67.14;81371.88;5049861;28;20029;-71
2023/06/26 07:40:08;;;;;;;12.50;1.45;;;;;;;-146.27;67.60;81375.91;5048236;28;20036;-70
2023/06/26 07:42:33;;;;;;;10.73;1.90;;;;;;;-146.27;66.98;81339.75;5051339;28;20158;-69
2023/06/26 07:44:59;;;;;;;8.25;1.50;;;;;;;-146.27;66.95;81339.75;5050668;28;20374;-71
2023/06/26 07:47:24;;;;;;;6.20;1.45;;;;;;;-146.27;66.21;81325.69;5048360;28;20028;-71
2023/06/26 07:49:49;;;;;;;8.23;1.65;;;;;;;-146.27;66.71;81379.91;5051208;28;20020;-70
2023/06/26 07:52:15;;;;;;;14.73;1.80;;;;;;;-146.27;66.37;81379.91;5050155;28;20499;-70
2023/06/26 07:54:41;;;;;;;7.32;1.50;;;;;;;-146.27;65.95;81353.81;5045683;28;20028;-69
2023/06/26 07:57:06;;;;;;;3.63;1.23;;;;;;;-146.27;65.45;81295.56;5042349;28;20024;-70
2023/06/26 07:59:32;;;;;;;4.28;1.42;;;;;;;-146.27;65.29;81225.28;5042588;28;20555;-70
2023/06/26 08:01:59;;;;;;;4.53;1.80;;;;;;;-146.27;63.76;81171.06;5045654;28;20031;-71
2023/06/26 08:04:26;;;;;;;4.35;1.27;;;;;;;-146.27;63.31;81161.00;5045821;28;20472;-70
2023/06/26 08:06:57;;;;;;;7.28;1.40;;;;;;;-146.27;63.45;81108.81;5050848;28;20052;-70
2023/06/26 08:09:25;;;;;;;8.98;1.77;;;;;;;-146.27;62.79;81150.97;5049896;28;20028;-69
2023/06/26 08:11:51;;;;;;;6.53;1.70;;;;;;;-146.27;63.38;81116.84;5049420;28;20033;-69
2023/06/26 08:14:16;;;;;;;3.95;1.35;;;;;;;-146.27;63.36;81090.72;5047867;28;20570;-70
2023/06/26 08:16:43;;;;;;;5.53;2.00;;;;;;;-146.27;62.23;81116.84;5039787;28;20039;-69
2023/06/26 08:19:09;;;;;;;8.43;1.63;;;;;;;-146.27;62.56;81100.75;5050450;28;20415;-70
2023/06/26 08:21:34;;;;;;;7.22;1.77;;;;;;;-146.27;61.65;81106.78;5049964;28;20028;-70
2023/06/26 08:24:00;;;;;;;6.13;1.55;;;;;;;-146.27;60.73;81138.91;5049183;28;20021;-70
2023/06/26 08:26:25;;;;;;;5.28;1.58;;;;;;;-146.27;60.23;81094.75;5050398;28;20086;-70
2023/06/26 08:28:51;;;;;;;5.22;1.70;;;;;;;-146.27;60.76;81152.97;5048689;28;20035;-70
2023/06/26 08:31:17;;;;;;;8.93;1.50;;;;;;;-146.27;61.35;81126.88;5047270;28;20122;-71
2023/06/26 08:33:43;;;;;;;3.92;1.08;;;;;;;-146.27;61.78;81110.81;5050001;28;20397;-71
2023/06/26 08:36:08;;;;;;;5.22;1.52;;;;;;;-146.27;59.45;81126.88;5049149;28;20044;-69
2023/06/26 08:38:34;;;;;;;3.03;1.27;;;;;;;-146.27;60.03;81243.34;5050292;28;20029;-69
2023/06/26 08:40:59;;;;;;;6.82;2.90;;;;;;;-146.27;59.84;81159.00;5049039;28;20028;-69
2023/06/26 08:43:26;;;;;;;5.43;1.15;;;;;;;-146.27;58.34;81108.81;5046831;28;20033;-72
2023/06/26 08:45:52;;;;;;;4.90;1.63;;;;;;;-146.27;58.81;81165.03;5029134;28;20033;-71
2023/06/26 08:48:18;;;;;;;5.60;1.70;;;;;;;-146.27;58.15;81074.66;5031798;28;20038;-70
2023/06/26 08:50:45;;;;;;;5.47;1.30;;;;;;;-146.27;56.06;81155.00;5032679;28;20060;-71
2023/06/26 08:53:32;;;;;;;5.63;1.05;;;;;;;-146.27;57.08;81098.75;5048885;28;20032;-70
2023/06/26 08:55:59;;;;;;;3.50;1.35;;;;;;;-146.27;57.47;81062.59;5049607;28;20032;-70
2023/06/26 08:58:25;;;;;;;5.35;1.48;;;;;;;-146.27;57.63;81104.78;5050033;28;20061;-70
2023/06/26 09:00:51;;;;;;;4.47;1.45;;;;;;;-146.27;58.78;81106.78;5049173;28;20033;-71
2023/06/26 09:03:17;;;;;;;5.03;1.35;;;;;;;-146.27;58.08;81062.59;5049276;28;20502;-69
2023/06/26 09:05:42;;;;;;;5.72;1.30;;;;;;;-146.27;58.86;81096.75;5049112;28;20108;-70
2023/06/26 09:08:08;;;;;;;4.95;1.65;;;;;;;-146.27;57.93;81068.63;5048925;28;20453;-69
2023/06/26 09:10:33;;;;;;;5.63;1.63;;;;;;;-146.27;58.70;81002.38;5045119;28;20463;-69
2023/06/26 09:13:01;;;;;;;3.25;1.10;;;;;;;-146.27;59.17;81086.72;5049547;28;20369;-69
2023/06/26 09:15:28;;;;;;;9.68;1.60;;;;;;;-146.27;59.45;80986.31;5047871;28;20029;-70
2023/06/26 09:17:56;;;;;;;3.00;1.45;;;;;;;-146.27;59.14;80986.31;5049111;28;20175;-68
2023/06/26 09:20:22;;;;;;;4.30;1.30;;;;;;;-146.27;58.70;80952.16;5048783;28;20021;-69
2023/06/26 09:22:48;;;;;;;6.40;1.77;;;;;;;-146.27;57.84;80940.13;5049159;28;20037;-70
2023/06/26 09:25:14;;;;;;;4.70;1.60;;;;;;;-146.27;58.19;80970.25;5047106;28;20124;-70
2023/06/26 09:27:39;;;;;;;4.18;1.80;;;;;;;-146.27;58.03;80877.88;5048144;28;20111;-70
2023/06/26 09:30:09;;;;;;;3.92;1.35;;;;;;;-146.27;57.64;80918.03;5047278;28;20045;-69
2023/06/26 09:32:36;;;;;;;6.03;1.75;;;;;;;-146.27;57.69;80930.06;5037463;28;20028;-70
2023/06/26 09:35:03;;;;;;;4.13;1.20;;;;;;;-146.27;58.61;80928.06;5052582;28;20028;-70
2023/06/26 09:37:29;;;;;;;5.90;1.35;;;;;;;-146.27;58.21;80962.22;5039671;28;20033;-71
2023/06/26 09:39:54;;;;;;;6.40;1.92;;;;;;;-146.27;58.88;81052.56;5047635;28;20033;-72
2023/06/26 09:42:20;;;;;;;8.85;1.45;;;;;;;-146.27;58.50;80968.22;5052004;28;20036;-71
2023/06/26 09:44:47;;;;;;;5.93;1.42;;;;;;;-146.27;57.96;80976.25;5053518;28;20021;-71
2023/06/26 09:47:15;;;;;;;4.43;1.42;;;;;;;-146.27;57.38;80891.94;5050217;28;20115;-70
2023/06/26 09:49:42;;;;;;;4.05;1.50;;;;;;;-146.27;57.54;80994.34;5051393;28;20032;-71
2023/06/26 09:52:08;;;;;;;6.40;1.70;;;;;;;-146.27;57.85;81046.53;5051461;28;20032;-69
2023/06/26 09:54:33;;;;;;;5.72;1.40;;;;;;;-146.27;57.78;81050.56;5053112;28;20037;-71
2023/06/26 09:57:09;;;;;;;10.38;2.75;;;;;;;-146.27;57.83;80992.31;5034511;28;20025;-70
2023/06/26 09:59:36;;;;;;;8.18;1.58;;;;;;;-146.27;55.45;81006.38;5034139;28;20053;-70
2023/06/26 10:02:01;;;;;;;5.28;1.27;;;;;;;-146.27;56.06;81056.59;5051698;28;20024;-70
2023/06/26 10:04:27;;;;;;;7.90;2.08;;;;;;;-146.27;55.33;81010.41;5051778;28;20083;-70
2023/06/26 10:06:56;;;;;;;7.70;2.15;;;;;;;-146.27;55.23;81036.50;5051530;28;20021;-69
2023/06/26 10:09:23;;;;;;;3.20;1.52;;;;;;;-146.27;55.83;80922.03;5036850;28;20476;-72
2023/06/26 10:11:56;;;;;;;3.15;1.20;;;;;;;-146.27;54.68;80952.16;5051481;28;20048;-71
2023/06/26 10:14:24;;;;;;;7.93;1.42;;;;;;;-146.27;54.97;80877.88;5049124;28;20021;-69
2023/06/26 10:16:50;;;;;;;6.30;1.67;;;;;;;-146.27;55.11;80867.81;5049448;28;20476;-72
2023/06/26 10:19:23;;;;;;;5.10;1.20;;;;;;;-146.27;52.51;80815.63;5051249;28;20029;-71
2023/06/26 10:21:52;;;;;;;4.88;0.88;;;;;;;-146.27;51.75;80910.00;5034454;28;20028;-72
2023/06/26 10:24:19;;;;;;;4.65;1.15;;;;;;;-146.27;52.35;80863.81;5051905;28;20039;-69
2023/06/26 10:26:46;;;;;;;5.32;1.40;;;;;;;-146.27;52.21;80885.91;5049126;28;20515;-69
2023/06/26 10:29:13;;;;;;;7.07;1.30;;;;;;;-146.27;51.48;80821.63;5052563;28;20025;-70
2023/06/26 10:31:42;;;;;;;7.55;1.17;;;;;;;-146.27;52.32;80833.69;5051888;28;20024;-72
2023/06/26 10:34:07;;;;;;;3.47;1.50;;;;;;;-146.27;50.94;80885.91;5031254;28;20017;-69
2023/06/26 10:36:36;;;;;;;3.17;1.00;;;;;;;-146.27;49.85;80873.84;5045028;28;20538;-73
2023/06/26 10:39:05;;;;;;;6.38;1.20;;;;;;;-146.27;49.54;80729.28;5051277;28;20077;-74
2023/06/26 10:41:42;;;;;;;12.30;1.42;;;;;;;-146.27;49.29;80821.63;5044532;28;20554;-75
2023/06/26 10:44:10;;;;;;;3.05;1.17;;;;;;;-146.27;49.72;80793.53;5043666;28;22546;-75
2023/06/26 10:46:56;;;;;;;7.07;1.30;;;;;;;-146.27;51.21;80787.50;5045610;28;20602;-73
2023/06/26 10:49:29;;;;;;;6.40;1.33;;;;;;;-146.27;50.72;80717.22;5028367;28;20124;-73
2023/06/26 10:51:58;;;;;;;5.50;1.10;;;;;;;-146.27;49.94;80725.25;5045047;28;20043;-73
2023/06/26 10:54:28;;;;;;;6.07;1.30;;;;;;;-146.27;48.81;80709.19;5042193;28;20060;-72
2023/06/26 10:56:58;;;;;;;8.40;1.80;;;;;;;-146.27;49.22;80689.13;5043962;28;20023;-73
2023/06/26 10:59:26;;;;;;;5.80;1.48;;;;;;;-146.27;48.53;80713.22;5042936;28;20055;-73
2023/06/26 11:01:59;;;;;;;4.50;1.17;;;;;;;-146.27;48.22;80648.97;5043067;28;20040;-73
2023/06/26 11:04:52;;;;;;;3.67;1.00;;;;;;;-146.27;47.15;80628.88;5046168;28;20029;-73
2023/06/26 11:07:22;;;;;;;7.45;1.38;;;;;;;-146.27;48.03;80608.78;5041643;28;20056;-73
2023/06/26 11:10:00;;;;;;;4.78;1.23;;;;;;;-146.27;47.80;80628.88;5044373;28;20036;-73
2023/06/26 11:12:39;;;;;;;5.93;1.15;;;;;;;-146.27;47.77;80502.38;5043817;28;20384;-72